Time;durP1;ratioP1;P1;durP2;ratioP2;P2;SDS_P1;SDS_P2;PMS_P1;PMS_P2;Temp;Humidity;BMP_temperature;BMP_pressure;BME280_temperature;BME280_humidity;BME280_pressure;Samples;Min_cycle;Max_cycle;Signal;HPM_P1;HPM_P2
2022/12/04 00:01:16;;;;;;;9.03;7.67;;;0.80;97.30;;;;;;5074327;28;20421;-83
2022/12/04 00:03:42;;;;;;;11.47;9.97;;;0.80;97.30;;;;;;5074644;28;20175;-86
2022/12/04 00:06:15;;;;;;;15.07;7.07;;;0.80;97.30;;;;;;5061760;28;20548;-84
2022/12/04 00:08:41;;;;;;;15.77;8.30;;;0.80;97.30;;;;;;5074597;28;20568;-85
2022/12/04 00:11:09;;;;;;;16.70;6.83;;;0.80;97.30;;;;;;5074368;28;20953;-83
2022/12/04 00:13:35;;;;;;;14.00;6.33;;;0.70;97.30;;;;;;5074890;28;20425;-85
2022/12/04 00:16:04;;;;;;;5.80;5.50;;;0.80;97.30;;;;;;5076249;28;20406;-84
2022/12/04 00:18:29;;;;;;;10.87;8.60;;;0.80;97.30;;;;;;5075446;28;20498;-87
2022/12/04 00:20:55;;;;;;;9.10;5.60;;;0.80;97.30;;;;;;5065077;28;20421;-85
2022/12/04 00:23:20;;;;;;;14.40;4.47;;;0.70;97.30;;;;;;5071687;28;20182;-86
2022/12/04 00:25:47;;;;;;;12.77;8.83;;;0.80;97.30;;;;;;5075260;28;20182;-84
2022/12/04 00:28:15;;;;;;;11.07;10.20;;;0.80;97.30;;;;;;5071954;28;20196;-83
2022/12/04 00:30:42;;;;;;;8.70;7.37;;;0.80;97.30;;;;;;5066153;28;20444;-87
2022/12/04 00:33:08;;;;;;;24.90;6.00;;;0.80;97.30;;;;;;5075840;28;20421;-84
2022/12/04 00:35:33;;;;;;;11.20;6.60;;;0.80;97.30;;;;;;5070123;28;20782;-83
2022/12/04 00:37:59;;;;;;;15.53;7.70;;;0.80;97.30;;;;;;5077218;28;20248;-85
2022/12/04 00:40:25;;;;;;;18.93;8.67;;;0.80;97.30;;;;;;5083269;28;20219;-86
2022/12/04 00:42:50;;;;;;;4.73;4.43;;;0.80;97.30;;;;;;5092598;28;20180;-86
2022/12/04 00:45:16;;;;;;;6.90;5.90;;;0.80;97.30;;;;;;5093073;28;20235;-84
2022/12/04 00:47:41;;;;;;;11.07;6.40;;;0.80;97.30;;;;;;5091264;28;20187;-84
2022/12/04 00:50:07;;;;;;;16.87;8.07;;;0.80;97.30;;;;;;5093944;28;20203;-87
2022/12/04 00:52:33;;;;;;;21.13;6.67;;;0.80;97.30;;;;;;5079728;28;20222;-88
2022/12/04 00:54:58;;;;;;;9.40;4.83;;;0.80;97.30;;;;;;5092576;28;20428;-87
2022/12/04 00:57:24;;;;;;;6.63;6.00;;;0.80;97.30;;;;;;5093653;28;20210;-85
2022/12/04 00:59:49;;;;;;;16.07;7.47;;;0.80;97.30;;;;;;5093452;28;20195;-88
2022/12/04 01:02:15;;;;;;;14.90;6.47;;;0.80;97.30;;;;;;5094454;28;20189;-84
2022/12/04 01:04:40;;;;;;;16.00;6.90;;;0.80;97.30;;;;;;5093973;28;20179;-86
2022/12/04 01:07:06;;;;;;;7.63;6.40;;;0.80;97.30;;;;;;5091376;28;20282;-84
2022/12/04 01:09:32;;;;;;;18.67;9.73;;;0.80;97.30;;;;;;5075474;28;20225;-85
2022/12/04 01:11:57;;;;;;;15.87;11.57;;;0.80;97.30;;;;;;5058267;28;20191;-86
2022/12/04 01:14:23;;;;;;;16.00;7.77;;;0.80;97.30;;;;;;5071798;28;20408;-86
2022/12/04 01:16:48;;;;;;;48.37;9.77;;;0.80;97.30;;;;;;5072742;28;20546;-86
2022/12/04 01:19:14;;;;;;;8.63;7.13;;;0.80;97.30;;;;;;5072483;28;20253;-86
2022/12/04 01:21:40;;;;;;;7.60;6.80;;;0.80;97.30;;;;;;5072707;28;20182;-86
2022/12/04 01:24:06;;;;;;;11.87;6.70;;;0.80;97.30;;;;;;5072869;28;20215;-86
2022/12/04 01:26:31;;;;;;;14.50;6.87;;;0.80;97.30;;;;;;5059907;28;20171;-86
2022/12/04 01:28:57;;;;;;;23.07;9.53;;;0.80;97.30;;;;;;5058751;28;20457;-86
2022/12/04 01:31:23;;;;;;;4.27;3.80;;;0.80;97.30;;;;;;5072041;28;20184;-86
2022/12/04 01:33:49;;;;;;;14.33;9.17;;;0.80;97.30;;;;;;5070127;28;20418;-85
2022/12/04 01:36:18;;;;;;;26.47;7.50;;;0.80;97.30;;;;;;5061961;28;20551;-86
2022/12/04 01:38:44;;;;;;;14.53;8.43;;;0.80;97.30;;;;;;5072122;28;20501;-86
2022/12/04 01:41:11;;;;;;;7.07;6.70;;;0.80;97.30;;;;;;5072587;28;20449;-87
2022/12/04 01:43:38;;;;;;;10.57;7.10;;;0.80;97.30;;;;;;5059849;28;20413;-86
2022/12/04 01:46:05;;;;;;;13.80;8.50;;;0.80;97.30;;;;;;5072398;28;20421;-86
2022/12/04 01:48:40;;;;;;;7.53;4.63;;;0.80;97.30;;;;;;5072070;28;20969;-86
2022/12/04 01:51:26;;;;;;;13.73;8.00;;;0.80;97.30;;;;;;5055024;28;20516;-86
2022/12/04 01:54:04;;;;;;;5.87;4.67;;;0.80;97.30;;;;;;5054297;28;20414;-87
2022/12/04 01:56:35;;;;;;;13.27;6.40;;;0.80;97.30;;;;;;5062246;28;20860;-86
2022/12/04 01:59:02;;;;;;;7.33;5.83;;;0.80;97.30;;;;;;5051668;23;20683;-86
2022/12/04 02:01:34;;;;;;;20.03;9.77;;;0.80;97.30;;;;;;5019564;28;20428;-82
2022/12/04 02:04:01;;;;;;;9.23;5.50;;;0.80;97.30;;;;;;5022082;28;20880;-81
2022/12/04 02:06:27;;;;;;;10.20;8.50;;;0.80;97.30;;;;;;4999432;28;20427;-85
2022/12/04 02:08:53;;;;;;;20.03;8.33;;;0.80;97.30;;;;;;5023165;28;20478;-82
2022/12/04 02:11:43;;;;;;;14.10;6.70;;;0.80;97.30;;;;;;5023087;28;20195;-82
2022/12/04 02:14:35;;;;;;;23.47;8.97;;;0.80;97.30;;;;;;5019509;28;20786;-86
2022/12/04 02:17:16;;;;;;;8.87;5.37;;;0.80;97.30;;;;;;4994987;28;20431;-86
2022/12/04 02:20:08;;;;;;;15.40;6.33;;;0.80;97.30;;;;;;5005968;28;20478;-88
2022/12/04 02:22:42;;;;;;;8.43;7.97;;;0.80;97.30;;;;;;5029858;28;20426;-86
2022/12/04 02:25:17;;;;;;;6.60;6.03;;;0.80;97.30;;;;;;5018256;28;20473;-86
2022/12/04 02:27:56;;;;;;;9.27;4.63;;;0.80;97.30;;;;;;5018043;28;20462;-86
2022/12/04 02:30:22;;;;;;;10.60;6.23;;;0.80;97.30;;;;;;4951856;28;20537;-86
2022/12/04 02:33:04;;;;;;;56.33;10.43;;;0.80;97.30;;;;;;5018024;28;20506;-86
2022/12/04 02:35:35;;;;;;;8.63;5.10;;;0.80;97.30;;;;;;5018160;28;20183;-86
2022/12/04 02:38:20;;;;;;;13.57;8.77;;;0.80;97.30;;;;;;5023627;28;20426;-86
2022/12/04 02:41:07;;;;;;;8.17;5.90;;;0.80;97.30;;;;;;5018490;28;20478;-87
2022/12/04 02:43:47;;;;;;;13.53;7.47;;;0.80;97.30;;;;;;5015422;28;20484;-86
2022/12/04 02:46:19;;;;;;;8.87;7.70;;;0.80;97.30;;;;;;5017923;28;20461;-87
2022/12/04 02:48:48;;;;;;;13.00;7.93;;;0.80;97.30;;;;;;5034696;28;20525;-85
2022/12/04 02:51:17;;;;;;;14.73;6.27;;;0.80;97.30;;;;;;5014992;28;20796;-87
2022/12/04 02:53:51;;;;;;;19.13;11.97;;;0.80;97.30;;;;;;5017870;28;20427;-86
2022/12/04 02:56:29;;;;;;;20.23;8.50;;;0.80;97.30;;;;;;5024014;28;20437;-86
2022/12/04 02:59:03;;;;;;;22.80;10.70;;;0.80;97.30;;;;;;5012378;28;21011;-87
2022/12/04 03:01:34;;;;;;;15.70;8.10;;;0.80;97.30;;;;;;4995091;28;21032;-86
2022/12/04 03:04:21;;;;;;;37.23;10.13;;;0.80;97.30;;;;;;4934590;28;20434;-87
2022/12/04 03:06:59;;;;;;;9.97;6.07;;;0.80;97.30;;;;;;4941514;28;20454;-86
2022/12/04 03:10:04;;;;;;;17.83;9.87;;;0.80;97.30;;;;;;4923000;29;20548;-87
2022/12/04 03:12:43;;;;;;;16.30;8.90;;;0.80;97.30;;;;;;4942361;28;20431;-86
2022/12/04 03:15:18;;;;;;;13.63;7.07;;;0.80;97.30;;;;;;4934586;29;20439;-87
2022/12/04 03:18:10;;;;;;;11.23;5.90;;;0.80;97.30;;;;;;4964465;28;20929;-86
2022/12/04 03:20:37;;;;;;;9.97;7.20;;;0.80;97.30;;;;;;4951588;28;20613;-86
2022/12/04 03:23:11;;;;;;;15.10;8.10;;;0.80;97.30;;;;;;4940888;28;20427;-87
2022/12/04 03:25:49;;;;;;;29.47;10.07;;;0.80;97.30;;;;;;4949316;28;20442;-85
2022/12/04 03:28:26;;;;;;;16.30;6.80;;;0.80;97.30;;;;;;4944669;28;20471;-86
2022/12/04 03:30:58;;;;;;;14.13;10.23;;;0.80;97.30;;;;;;4928279;28;20430;-87
2022/12/04 03:33:32;;;;;;;22.80;6.57;;;0.80;97.30;;;;;;4933688;28;20963;-87
2022/12/04 03:36:15;;;;;;;33.47;13.97;;;0.80;97.30;;;;;;4950656;28;20426;-86
2022/12/04 03:39:05;;;;;;;26.73;12.03;;;0.80;97.30;;;;;;4933707;29;20475;-87
2022/12/04 03:42:01;;;;;;;15.83;8.97;;;0.80;97.30;;;;;;4933374;29;20484;-86
2022/12/04 03:44:37;;;;;;;12.30;10.07;;;0.80;97.30;;;;;;4934027;28;20972;-86
2022/12/04 03:47:12;;;;;;;13.57;7.67;;;0.80;97.30;;;;;;4933982;29;21090;-86
2022/12/04 03:49:40;;;;;;;24.50;10.13;;;0.80;97.30;;;;;;4937353;29;21006;-87
2022/12/04 03:52:32;;;;;;;12.27;8.03;;;0.80;97.30;;;;;;4933709;28;20492;-87
2022/12/04 03:55:09;;;;;;;20.43;8.63;;;0.80;97.30;;;;;;4924210;29;21050;-86
2022/12/04 03:57:40;;;;;;;11.90;8.07;;;0.80;97.30;;;;;;4933528;29;20434;-85
2022/12/04 04:00:16;;;;;;;17.00;9.40;;;0.80;97.30;;;;;;4993417;28;20569;-86
2022/12/04 04:02:46;;;;;;;15.93;7.80;;;0.80;97.30;;;;;;5027076;28;20506;-85
2022/12/04 04:05:14;;;;;;;7.60;7.20;;;0.80;97.30;;;;;;5030370;28;20790;-86
2022/12/04 04:07:46;;;;;;;9.37;7.63;;;0.80;97.30;;;;;;5030680;28;20429;-86
2022/12/04 04:10:18;;;;;;;9.50;5.60;;;0.80;97.30;;;;;;5030244;28;20861;-87
2022/12/04 04:24:26;;;;;;;19.80;8.27;;;0.70;97.30;;;;;;5031719;28;20438;-87
2022/12/04 04:26:53;;;;;;;20.03;6.80;;;0.70;97.30;;;;;;5030087;28;20423;-87
2022/12/04 04:29:19;;;;;;;15.13;10.50;;;0.70;97.30;;;;;;5030041;28;20430;-86
2022/12/04 04:32:23;;;;;;;16.83;6.67;;;0.70;97.30;;;;;;5030330;28;20782;-86
2022/12/04 04:35:20;;;;;;;17.33;9.07;;;0.70;97.30;;;;;;5026439;28;20818;-86
2022/12/04 04:38:06;;;;;;;16.43;8.60;;;0.70;97.30;;;;;;5045848;28;20424;-86
2022/12/04 04:40:48;;;;;;;19.80;9.43;;;0.70;97.30;;;;;;5030418;28;20466;-86
2022/12/04 04:43:38;;;;;;;14.90;6.97;;;0.70;97.30;;;;;;5030311;28;20424;-87
2022/12/04 04:46:08;;;;;;;15.10;8.57;;;0.70;97.30;;;;;;5033263;28;20814;-86
2022/12/04 04:48:42;;;;;;;12.87;8.70;;;0.70;97.30;;;;;;5033767;28;20399;-87
2022/12/04 04:51:09;;;;;;;12.10;7.40;;;0.70;97.30;;;;;;5049286;28;20419;-86
2022/12/04 04:53:46;;;;;;;10.63;8.00;;;0.70;97.30;;;;;;5034070;28;21004;-86
2022/12/04 04:56:13;;;;;;;11.37;6.67;;;0.70;97.30;;;;;;5022018;28;20505;-86
2022/12/04 04:58:38;;;;;;;30.03;9.37;;;0.70;97.30;;;;;;5031689;28;20510;-86
2022/12/04 05:01:11;;;;;;;20.63;8.27;;;0.70;97.30;;;;;;4936553;29;20514;-86
2022/12/04 05:03:37;;;;;;;4.73;4.43;;;0.70;97.30;;;;;;4941218;28;20193;-86
2022/12/04 05:06:03;;;;;;;13.67;7.37;;;0.70;97.30;;;;;;4991992;28;20508;-86
2022/12/04 05:08:28;;;;;;;8.80;7.47;;;0.70;97.30;;;;;;4947508;28;20415;-87
2022/12/04 05:10:54;;;;;;;7.77;7.40;;;0.70;97.30;;;;;;4983368;28;20200;-86
2022/12/04 05:13:20;;;;;;;42.47;11.30;;;0.70;97.30;;;;;;4998117;28;20194;-85
2022/12/04 05:16:00;;;;;;;19.07;8.90;;;0.80;97.30;;;;;;4936434;29;20278;-86
2022/12/04 05:18:26;;;;;;;10.47;9.00;;;0.70;97.30;;;;;;4975431;28;20431;-86
2022/12/04 05:20:52;;;;;;;11.23;10.67;;;0.70;97.30;;;;;;4953266;29;20451;-85
2022/12/04 05:23:18;;;;;;;20.07;11.33;;;0.70;97.30;;;;;;4935895;29;20431;-86
2022/12/04 05:25:44;;;;;;;29.93;9.03;;;0.70;97.30;;;;;;4941425;28;20324;-86
2022/12/04 05:28:09;;;;;;;32.80;10.40;;;0.70;97.30;;;;;;4937947;28;20439;-86
2022/12/04 05:30:35;;;;;;;53.20;12.67;;;0.70;97.30;;;;;;4953034;28;20264;-86
2022/12/04 05:33:01;;;;;;;15.83;11.60;;;0.70;97.30;;;;;;4936048;28;20195;-86
2022/12/04 05:35:26;;;;;;;24.93;11.23;;;0.70;97.30;;;;;;4988989;28;20274;-86
2022/12/04 05:37:52;;;;;;;20.53;9.73;;;0.70;97.30;;;;;;4946186;28;20179;-83
2022/12/04 05:40:17;;;;;;;26.83;11.73;;;0.70;97.30;;;;;;4939351;28;20219;-86
2022/12/04 05:42:43;;;;;;;11.90;5.67;;;0.70;97.30;;;;;;4931013;28;20195;-88
2022/12/04 05:45:08;;;;;;;4.90;4.57;;;0.70;97.30;;;;;;4952809;29;20274;-86
2022/12/04 05:47:42;;;;;;;19.23;10.00;;;0.70;97.30;;;;;;4952427;28;20283;-86
2022/12/04 05:50:09;;;;;;;20.43;10.30;;;0.70;97.30;;;;;;4969365;28;20214;-83
2022/12/04 05:52:35;;;;;;;6.13;5.80;;;0.70;97.30;;;;;;4928976;28;20514;-86
2022/12/04 05:55:00;;;;;;;23.10;9.50;;;0.70;97.30;;;;;;4932858;28;20458;-86
2022/12/04 05:57:26;;;;;;;18.90;8.27;;;0.70;97.30;;;;;;4928443;28;20188;-84
2022/12/04 05:59:51;;;;;;;14.67;8.67;;;0.80;97.30;;;;;;4976025;28;20355;-85
2022/12/04 06:02:20;;;;;;;15.83;6.40;;;0.70;97.30;;;;;;5027007;28;20188;-84
2022/12/04 06:04:46;;;;;;;7.93;6.17;;;0.80;97.30;;;;;;5023009;28;20185;-88
2022/12/04 06:07:11;;;;;;;21.73;12.27;;;0.70;97.30;;;;;;5029725;28;20798;-85
2022/12/04 06:09:37;;;;;;;10.53;6.83;;;0.70;97.30;;;;;;5027528;28;20196;-85
2022/12/04 06:12:03;;;;;;;10.57;8.43;;;0.70;97.30;;;;;;5020836;28;20191;-85
2022/12/04 06:14:29;;;;;;;7.40;7.00;;;0.70;97.30;;;;;;5028214;28;20192;-85
2022/12/04 06:16:55;;;;;;;7.10;5.57;;;0.80;97.30;;;;;;5027007;28;20424;-84
2022/12/04 06:19:22;;;;;;;20.63;10.33;;;0.80;97.30;;;;;;5023106;28;20263;-86
2022/12/04 06:21:50;;;;;;;10.47;6.10;;;0.80;97.30;;;;;;5021282;28;20191;-85
2022/12/04 06:24:19;;;;;;;19.67;11.07;;;0.80;97.30;;;;;;5020420;28;20558;-87
2022/12/04 06:26:46;;;;;;;11.97;6.47;;;0.80;97.30;;;;;;5027063;28;20416;-88
2022/12/04 06:29:12;;;;;;;11.67;6.80;;;0.80;97.30;;;;;;5031776;28;20451;-86
2022/12/04 06:31:38;;;;;;;11.17;6.17;;;0.80;97.30;;;;;;5030283;28;20419;-85
2022/12/04 06:34:05;;;;;;;19.30;10.97;;;0.80;97.30;;;;;;5029240;28;21099;-88
2022/12/04 06:36:31;;;;;;;8.97;6.53;;;0.80;97.30;;;;;;5031452;28;20944;-86
2022/12/04 06:38:57;;;;;;;12.10;6.47;;;0.80;97.30;;;;;;5043251;28;20449;-87
2022/12/04 06:41:24;;;;;;;12.27;7.43;;;0.80;97.30;;;;;;5026205;28;20185;-87
2022/12/04 06:43:50;;;;;;;11.80;9.63;;;0.80;97.30;;;;;;5028263;28;20929;-86
2022/12/04 06:46:22;;;;;;;16.23;9.17;;;0.80;97.30;;;;;;5029530;28;20797;-86
2022/12/04 06:48:48;;;;;;;28.53;8.73;;;0.80;97.30;;;;;;5029254;28;21019;-86
2022/12/04 06:51:20;;;;;;;11.33;7.70;;;0.80;97.30;;;;;;5030477;28;20879;-86
2022/12/04 06:53:46;;;;;;;17.23;8.30;;;0.80;97.30;;;;;;5028776;28;20419;-86
2022/12/04 06:56:16;;;;;;;16.23;8.70;;;0.80;97.30;;;;;;5029548;28;20466;-86
2022/12/04 06:58:44;;;;;;;17.17;12.50;;;0.80;97.30;;;;;;5038629;28;20447;-87
2022/12/04 07:01:12;;;;;;;19.03;6.57;;;0.80;97.30;;;;;;4946591;28;20491;-87
2022/12/04 07:03:38;;;;;;;16.03;11.40;;;0.80;97.30;;;;;;4951732;28;20465;-83
2022/12/04 07:06:20;;;;;;;12.67;9.43;;;0.80;97.30;;;;;;4951297;28;20427;-84
2022/12/04 07:08:48;;;;;;;15.03;9.40;;;0.80;97.30;;;;;;4963771;28;20462;-88
2022/12/04 07:11:15;;;;;;;13.73;9.40;;;0.90;97.30;;;;;;4971540;28;20447;-86
2022/12/04 07:13:41;;;;;;;9.17;8.30;;;0.80;97.30;;;;;;4964239;28;20556;-85
2022/12/04 07:16:08;;;;;;;10.57;7.10;;;0.90;97.30;;;;;;4942739;28;20999;-86
2022/12/04 07:18:35;;;;;;;15.77;9.50;;;0.90;97.30;;;;;;4963899;28;20956;-85
2022/12/04 07:21:08;;;;;;;24.70;10.83;;;0.90;97.30;;;;;;4941364;28;20554;-85
2022/12/04 07:23:34;;;;;;;45.57;9.67;;;0.90;97.30;;;;;;4948635;28;20434;-86
2022/12/04 07:26:07;;;;;;;16.00;9.00;;;0.90;97.30;;;;;;4941985;28;20496;-86
2022/12/04 07:28:33;;;;;;;14.57;8.73;;;0.90;97.30;;;;;;4948429;28;20423;-87
2022/12/04 07:31:06;;;;;;;29.13;11.23;;;0.90;97.30;;;;;;4991003;28;20509;-86
2022/12/04 07:33:32;;;;;;;25.80;10.77;;;0.90;97.30;;;;;;4956221;28;20434;-87
2022/12/04 07:36:00;;;;;;;15.50;7.70;;;0.90;97.30;;;;;;4939624;28;20426;-86
2022/12/04 07:38:25;;;;;;;34.60;8.40;;;0.90;97.30;;;;;;5004608;28;20423;-87
2022/12/04 07:40:54;;;;;;;18.43;9.87;;;0.90;97.30;;;;;;4932529;28;20569;-87
2022/12/04 07:43:19;;;;;;;19.23;12.53;;;0.90;97.30;;;;;;5001602;28;20418;-87
2022/12/04 07:45:45;;;;;;;27.43;10.40;;;0.90;97.30;;;;;;5017453;28;20909;-86
2022/12/04 07:48:11;;;;;;;17.97;10.00;;;0.90;97.30;;;;;;4980728;28;20198;-87
2022/12/04 07:50:36;;;;;;;13.27;10.40;;;0.90;97.30;;;;;;4986292;28;20207;-86
2022/12/04 07:53:02;;;;;;;17.80;9.60;;;1.00;97.30;;;;;;4939817;28;20580;-88
2022/12/04 07:55:27;;;;;;;39.50;10.63;;;1.00;97.30;;;;;;5007460;28;20187;-87
2022/12/04 07:57:53;;;;;;;11.70;7.03;;;1.00;97.30;;;;;;4965651;28;20192;-88
2022/12/04 08:00:19;;;;;;;49.17;14.67;;;1.00;97.30;;;;;;5007244;28;20270;-82
2022/12/04 08:02:44;;;;;;;17.10;9.30;;;1.00;97.30;;;;;;5054598;28;20195;-84
2022/12/04 08:05:10;;;;;;;14.13;8.93;;;1.00;97.30;;;;;;5037554;28;20434;-82
2022/12/04 08:07:35;;;;;;;30.53;12.47;;;1.00;97.30;;;;;;5036449;28;20202;-86
2022/12/04 08:10:01;;;;;;;19.80;9.83;;;1.00;97.30;;;;;;5039196;28;20200;-81
2022/12/04 08:12:26;;;;;;;19.53;8.53;;;1.00;97.30;;;;;;5032096;28;20187;-85
2022/12/04 08:14:52;;;;;;;15.67;11.30;;;1.00;97.30;;;;;;5036787;28;20184;-82
2022/12/04 08:17:18;;;;;;;11.03;10.43;;;1.00;97.30;;;;;;5026934;28;20189;-84
2022/12/04 08:19:44;;;;;;;16.57;8.73;;;1.00;97.30;;;;;;5031578;28;20663;-82
2022/12/04 08:22:12;;;;;;;15.50;6.20;;;1.00;97.30;;;;;;5035172;28;20532;-83
2022/12/04 08:24:38;;;;;;;31.13;12.00;;;1.00;97.30;;;;;;5034910;28;20584;-81
2022/12/04 08:27:07;;;;;;;15.63;9.80;;;1.00;97.30;;;;;;5046630;28;20432;-81
2022/12/04 08:29:58;;;;;;;17.87;14.23;;;1.00;97.30;;;;;;5049099;28;20208;-86
2022/12/04 08:32:30;;;;;;;19.07;12.50;;;1.10;97.30;;;;;;5039906;28;21007;-83
2022/12/04 08:34:55;;;;;;;13.63;8.87;;;1.10;97.30;;;;;;5057875;22;20431;-88
2022/12/04 08:37:21;;;;;;;15.47;11.87;;;1.10;97.30;;;;;;4924458;28;20879;-84
2022/12/04 08:39:46;;;;;;;14.50;7.90;;;1.00;97.30;;;;;;4926093;28;20283;-83
2022/12/04 08:42:12;;;;;;;28.40;12.50;;;1.10;97.30;;;;;;4915499;28;20185;-83
2022/12/04 08:44:40;;;;;;;14.73;9.73;;;1.10;97.30;;;;;;4926264;28;20709;-83
2022/12/04 08:47:06;;;;;;;41.40;12.97;;;1.10;97.30;;;;;;4910101;29;20189;-85
2022/12/04 08:49:32;;;;;;;9.03;8.07;;;1.10;97.30;;;;;;4920855;28;20432;-83
2022/12/04 08:51:57;;;;;;;42.70;12.57;;;1.10;97.30;;;;;;4889485;28;20195;-85
2022/12/04 08:54:23;;;;;;;13.93;9.73;;;1.10;97.30;;;;;;4889075;28;20189;-85
2022/12/04 08:56:48;;;;;;;10.20;5.30;;;1.10;97.30;;;;;;4890754;29;20534;-82
2022/12/04 08:59:14;;;;;;;42.67;12.10;;;1.10;97.30;;;;;;4915941;28;20778;-84
2022/12/04 09:01:39;;;;;;;40.30;12.60;;;1.10;97.30;;;;;;4902678;28;20176;-83
2022/12/04 09:04:05;;;;;;;15.63;9.43;;;1.10;97.30;;;;;;4893498;29;20193;-82
2022/12/04 09:06:30;;;;;;;40.20;12.07;;;1.10;97.30;;;;;;4918728;29;20204;-85
2022/12/04 09:08:56;;;;;;;30.83;11.30;;;1.10;97.30;;;;;;4895720;28;20577;-82
2022/12/04 09:11:25;;;;;;;14.60;10.60;;;1.10;97.30;;;;;;4907854;28;20185;-82
2022/12/04 09:13:51;;;;;;;16.70;8.93;;;1.10;97.30;;;;;;4897853;28;20449;-85
2022/12/04 09:16:21;;;;;;;25.53;8.70;;;1.10;97.30;;;;;;4902428;28;20890;-84
2022/12/04 09:18:48;;;;;;;17.40;10.30;;;1.10;97.30;;;;;;4896909;28;20440;-84
2022/12/04 09:21:16;;;;;;;22.93;10.97;;;1.10;97.30;;;;;;4914369;29;20445;-84
2022/12/04 09:23:42;;;;;;;20.63;10.70;;;1.10;97.30;;;;;;4899175;28;20949;-82
2022/12/04 09:26:24;;;;;;;8.70;8.23;;;1.10;97.30;;;;;;4898350;28;20465;-83
2022/12/04 09:28:51;;;;;;;32.37;12.60;;;1.10;97.30;;;;;;4898893;29;20420;-81
2022/12/04 09:31:18;;;;;;;25.17;7.00;;;1.10;97.30;;;;;;4896328;29;20494;-83
2022/12/04 09:33:44;;;;;;;27.20;10.00;;;1.10;97.30;;;;;;4901098;28;20555;-81
2022/12/04 09:36:16;;;;;;;18.23;10.37;;;1.10;97.30;;;;;;4952131;28;20887;-81
2022/12/04 09:38:46;;;;;;;48.97;13.63;;;1.20;97.30;;;;;;4993944;28;20422;-84
2022/12/04 09:41:35;;;;;;;11.13;6.43;;;1.20;97.30;;;;;;4991890;28;20547;-81
2022/12/04 09:44:18;;;;;;;10.43;7.37;;;1.20;97.30;;;;;;4985722;28;20802;-82
2022/12/04 09:46:58;;;;;;;14.53;10.10;;;1.20;97.30;;;;;;5010147;28;20528;-81
2022/12/04 09:49:32;;;;;;;20.17;10.77;;;1.20;97.30;;;;;;4994007;28;20432;-80
2022/12/04 09:52:01;;;;;;;19.03;12.27;;;1.20;97.30;;;;;;4992973;28;20429;-81
2022/12/04 09:54:33;;;;;;;39.90;8.47;;;1.20;97.30;;;;;;4991941;28;20425;-82
2022/12/04 09:57:04;;;;;;;22.27;10.70;;;1.20;97.30;;;;;;4993409;28;20460;-80
2022/12/04 09:59:31;;;;;;;16.93;10.87;;;1.20;97.30;;;;;;4993914;28;20555;-84
2022/12/04 10:02:15;;;;;;;17.73;9.33;;;1.20;97.30;;;;;;4989078;28;20425;-81
2022/12/04 10:04:40;;;;;;;11.63;8.90;;;1.20;97.30;;;;;;4990481;28;20445;-84
2022/12/04 10:07:27;;;;;;;26.33;14.93;;;1.20;97.30;;;;;;4992543;28;20417;-85
2022/12/04 10:10:27;;;;;;;13.53;9.00;;;1.20;97.30;;;;;;4992314;28;20182;-83
2022/12/04 10:13:15;;;;;;;14.03;10.27;;;1.20;97.30;;;;;;5007847;28;20447;-81
2022/12/04 10:15:53;;;;;;;18.77;9.60;;;1.10;97.30;;;;;;4984697;28;20465;-84
2022/12/04 10:18:37;;;;;;;18.30;9.13;;;1.10;97.30;;;;;;4988820;28;20785;-81
2022/12/04 10:21:16;;;;;;;10.73;7.33;;;1.20;97.30;;;;;;4993697;28;20515;-84
2022/12/04 10:23:51;;;;;;;14.63;6.63;;;1.10;97.30;;;;;;4986360;28;20452;-79
2022/12/04 10:26:23;;;;;;;24.80;10.37;;;1.20;97.30;;;;;;4994979;28;20486;-81
2022/12/04 10:29:00;;;;;;;12.57;11.30;;;1.20;97.30;;;;;;4994513;28;20539;-82
2022/12/04 10:31:28;;;;;;;8.30;7.00;;;1.20;97.30;;;;;;4989929;28;20856;-84
2022/12/04 10:34:02;;;;;;;15.83;9.60;;;1.20;97.30;;;;;;5000629;28;20609;-81
2022/12/04 10:36:32;;;;;;;19.97;12.30;;;1.10;97.30;;;;;;4990577;28;20482;-83
2022/12/04 10:39:13;;;;;;;25.60;14.50;;;1.10;97.30;;;;;;4987608;28;20422;-84
2022/12/04 10:41:59;;;;;;;8.13;7.67;;;1.10;97.30;;;;;;4984418;28;20955;-85
2022/12/04 10:44:25;;;;;;;7.67;7.27;;;1.20;97.30;;;;;;5001915;28;20421;-83
2022/12/04 10:46:56;;;;;;;25.73;12.23;;;1.20;97.30;;;;;;4986282;28;20469;-82
2022/12/04 10:49:30;;;;;;;12.97;8.07;;;1.20;97.30;;;;;;4989424;28;20182;-81
2022/12/04 10:51:56;;;;;;;35.07;9.23;;;1.20;97.30;;;;;;4992607;28;20424;-81
2022/12/04 10:54:34;;;;;;;18.97;12.30;;;1.20;97.30;;;;;;4990524;28;20732;-82
2022/12/04 10:57:09;;;;;;;21.03;13.03;;;1.20;97.30;;;;;;4986089;28;20194;-83
2022/12/04 10:59:39;;;;;;;34.43;12.73;;;1.20;97.30;;;;;;4990370;28;20460;-82
2022/12/04 11:02:27;;;;;;;9.80;7.10;;;1.30;97.30;;;;;;4989709;28;20425;-85
2022/12/04 11:05:21;;;;;;;32.57;12.93;;;1.30;97.30;;;;;;4986237;28;20505;-82
2022/12/04 11:07:47;;;;;;;20.63;7.77;;;1.30;97.30;;;;;;4983118;28;20494;-81
2022/12/04 11:10:34;;;;;;;10.30;7.93;;;1.30;97.30;;;;;;4987226;28;20477;-86
2022/12/04 11:13:02;;;;;;;11.63;8.73;;;1.30;97.30;;;;;;4991748;28;20421;-83
2022/12/04 11:15:29;;;;;;;12.03;7.67;;;1.30;97.30;;;;;;4991155;28;20441;-85
2022/12/04 11:18:05;;;;;;;18.67;11.13;;;1.30;97.30;;;;;;4986972;28;20531;-85
2022/12/04 11:20:31;;;;;;;16.67;8.63;;;1.40;97.30;;;;;;4997932;28;20463;-85
2022/12/04 11:22:57;;;;;;;15.20;9.70;;;1.40;97.30;;;;;;4986955;28;20445;-85
2022/12/04 11:25:32;;;;;;;10.93;10.33;;;1.40;97.30;;;;;;4988147;28;20201;-86
2022/12/04 11:28:01;;;;;;;31.10;13.13;;;1.40;97.30;;;;;;4982421;28;20417;-85
2022/12/04 11:30:35;;;;;;;19.77;10.07;;;1.50;97.30;;;;;;4987799;28;20442;-84
2022/12/04 11:33:02;;;;;;;25.93;8.20;;;1.50;97.30;;;;;;5000885;28;20414;-84
2022/12/04 11:35:30;;;;;;;28.93;10.10;;;1.50;97.30;;;;;;4985416;28;20471;-84
2022/12/04 11:38:01;;;;;;;22.10;13.90;;;1.50;97.30;;;;;;4989379;28;20432;-85
2022/12/04 11:40:27;;;;;;;14.00;13.10;;;1.50;97.30;;;;;;4985149;28;20453;-85
2022/12/04 11:43:12;;;;;;;16.43;9.80;;;1.50;97.30;;;;;;4991608;28;20426;-86
2022/12/04 11:45:37;;;;;;;18.33;11.50;;;1.50;97.30;;;;;;4986356;28;20453;-85
2022/12/04 11:48:14;;;;;;;13.63;10.53;;;1.50;97.30;;;;;;5013019;28;20425;-87
2022/12/04 11:51:05;;;;;;;28.93;12.07;;;1.50;97.30;;;;;;5028745;28;20174;-89
2022/12/04 11:53:55;;;;;;;11.93;9.30;;;1.50;97.30;;;;;;5011155;28;20959;-84
2022/12/04 11:56:28;;;;;;;14.17;9.47;;;1.50;97.30;;;;;;4988564;28;20441;-83
2022/12/04 11:58:53;;;;;;;17.43;9.13;;;1.50;97.30;;;;;;4994370;28;20525;-86
2022/12/04 12:01:44;;;;;;;9.60;8.60;;;1.50;97.30;;;;;;4981908;28;21051;-86
2022/12/04 12:04:12;;;;;;;24.40;9.40;;;1.50;97.30;;;;;;4993344;28;20186;-87
2022/12/04 12:06:50;;;;;;;22.83;7.63;;;1.50;97.30;;;;;;4994487;28;20951;-87
2022/12/04 12:09:27;;;;;;;10.10;8.20;;;1.50;97.30;;;;;;4980490;28;20416;-87
2022/12/04 12:12:06;;;;;;;15.33;7.43;;;1.50;97.30;;;;;;4992877;28;20412;-87
2022/12/04 12:14:44;;;;;;;20.03;10.10;;;1.50;97.30;;;;;;4993151;28;20417;-87
2022/12/04 12:17:20;;;;;;;26.07;11.00;;;1.50;97.30;;;;;;4992982;28;20491;-88
2022/12/04 12:20:09;;;;;;;14.43;10.50;;;1.50;97.30;;;;;;4980403;28;20468;-87
2022/12/04 12:23:13;;;;;;;36.53;11.73;;;1.50;97.30;;;;;;4957028;28;20420;-88
2022/12/04 12:26:01;;;;;;;31.00;12.67;;;1.50;97.30;;;;;;4941243;28;20460;-87
2022/12/04 12:28:57;;;;;;;29.77;11.30;;;1.50;97.30;;;;;;4990901;28;20417;-87
2022/12/04 12:31:47;;;;;;;22.00;6.57;;;1.50;97.30;;;;;;4992215;28;20457;-83
2022/12/04 12:34:35;;;;;;;23.33;12.07;;;1.50;97.30;;;;;;4997895;28;20417;-84
2022/12/04 12:37:14;;;;;;;10.13;6.83;;;1.50;97.30;;;;;;4921140;28;20475;-87
2022/12/04 12:39:49;;;;;;;24.83;10.97;;;1.50;97.30;;;;;;4895913;28;20857;-86
2022/12/04 12:42:20;;;;;;;13.40;7.83;;;1.50;97.30;;;;;;4896705;29;20985;-87
2022/12/04 12:45:22;;;;;;;19.90;10.37;;;1.50;97.30;;;;;;4905092;28;20452;-87
2022/12/04 12:47:53;;;;;;;29.53;10.90;;;1.50;97.30;;;;;;4905276;29;20511;-87
2022/12/04 12:50:27;;;;;;;22.60;10.47;;;1.60;97.30;;;;;;4979239;28;20416;-87
2022/12/04 12:52:56;;;;;;;49.80;9.97;;;1.60;97.30;;;;;;4888795;28;20432;-87
2022/12/04 12:55:32;;;;;;;13.90;8.23;;;1.60;97.30;;;;;;4893049;29;20575;-87
2022/12/04 12:58:03;;;;;;;20.60;11.83;;;1.60;97.30;;;;;;4897201;28;20608;-87
2022/12/04 13:00:31;;;;;;;27.07;11.10;;;1.60;97.30;;;;;;4879365;29;20941;-86
2022/12/04 13:03:17;;;;;;;17.37;11.03;;;1.60;97.30;;;;;;4906017;29;20428;-86
2022/12/04 13:05:46;;;;;;;31.87;15.00;;;1.60;97.30;;;;;;4901252;28;20448;-87
2022/12/04 13:08:28;;;;;;;16.10;8.10;;;1.60;97.30;;;;;;4896364;29;20536;-86
2022/12/04 13:11:17;;;;;;;34.63;12.57;;;1.50;97.30;;;;;;4896144;28;20792;-86
2022/12/04 13:13:52;;;;;;;25.07;12.07;;;1.50;97.30;;;;;;4893389;29;20433;-86
2022/12/04 13:16:25;;;;;;;18.33;10.23;;;1.50;97.30;;;;;;4966519;28;20483;-86
2022/12/04 13:19:17;;;;;;;44.63;9.37;;;1.50;97.30;;;;;;4896679;28;20425;-86
2022/12/04 13:21:48;;;;;;;24.77;9.67;;;1.50;97.30;;;;;;4885857;28;20976;-86